Time;durP1;ratioP1;P1;durP2;ratioP2;P2;SDS_P1;SDS_P2;PMS_P1;PMS_P2;Temp;Humidity;BMP_temperature;BMP_pressure;BME280_temperature;BME280_humidity;BME280_pressure;Samples;Min_cycle;Max_cycle;Signal;HPM_P1;HPM_P2
2023/07/05 00:02:38;;;;;;;7.13;4.43;;;13.40;99.90;;;;;;10396530;28;20207;-90
2023/07/05 00:07:41;;;;;;;11.75;6.28;;;13.10;99.90;;;;;;10396367;28;20208;-91
2023/07/05 00:12:44;;;;;;;13.18;5.18;;;12.90;99.90;;;;;;10380451;28;20599;-90
2023/07/05 00:17:46;;;;;;;9.77;4.80;;;12.80;99.90;;;;;;10412573;28;20298;-91
2023/07/05 00:22:50;;;;;;;8.35;5.28;;;12.90;99.90;;;;;;10412946;28;20204;-90
2023/07/05 00:27:52;;;;;;;10.90;5.70;;;12.80;99.90;;;;;;10380132;28;20254;-90
2023/07/05 00:32:55;;;;;;;9.68;6.10;;;12.80;99.90;;;;;;10396241;28;20212;-90
2023/07/05 00:37:58;;;;;;;6.13;5.28;;;12.70;99.90;;;;;;10413264;28;20235;-90
2023/07/05 00:43:09;;;;;;;8.57;5.47;;;12.70;99.90;;;;;;10396232;28;20261;-91
2023/07/05 00:48:15;;;;;;;9.30;5.38;;;12.60;99.90;;;;;;10396101;28;20200;-90
2023/07/05 00:53:18;;;;;;;9.60;5.72;;;12.40;99.90;;;;;;10394839;28;20704;-91
2023/07/05 00:58:23;;;;;;;6.68;4.93;;;12.60;99.90;;;;;;10412873;28;20256;-90
2023/07/05 01:03:28;;;;;;;6.68;4.47;;;12.30;99.90;;;;;;10395671;28;20249;-91
2023/07/05 01:08:30;;;;;;;9.98;4.97;;;12.20;99.90;;;;;;10394828;28;20238;-91
2023/07/05 01:13:46;;;;;;;9.95;5.45;;;12.20;99.90;;;;;;10394902;28;21023;-90
2023/07/05 01:19:37;;;;;;;7.63;5.38;;;12.20;99.90;;;;;;10397772;28;20258;-90
2023/07/05 01:24:50;;;;;;;8.07;5.15;;;12.40;99.90;;;;;;10229701;29;20210;-90
2023/07/05 01:29:56;;;;;;;6.05;4.78;;;12.40;99.90;;;;;;10214271;29;20218;-91
2023/07/05 01:35:27;;;;;;;9.52;5.28;;;12.50;99.90;;;;;;10229441;29;20206;-90
2023/07/05 01:40:30;;;;;;;7.95;5.63;;;12.40;99.90;;;;;;10215598;28;20274;-91
2023/07/05 01:45:38;;;;;;;6.07;5.15;;;12.00;99.90;;;;;;10214209;29;20206;-90
2023/07/05 01:50:51;;;;;;;7.15;5.22;;;12.00;99.90;;;;;;10211608;28;20256;-91
2023/07/05 01:56:07;;;;;;;9.23;6.07;;;12.00;99.90;;;;;;10198021;29;20246;-91
2023/07/05 02:01:12;;;;;;;11.10;5.95;;;11.90;99.90;;;;;;10325762;28;20227;-90
2023/07/05 02:06:21;;;;;;;9.48;5.57;;;11.90;99.90;;;;;;10400760;28;20279;-90
2023/07/05 02:11:24;;;;;;;5.82;5.00;;;12.10;99.90;;;;;;10385270;28;20211;-90
2023/07/05 02:16:27;;;;;;;9.70;6.43;;;11.80;99.90;;;;;;10400691;28;20211;-90
2023/07/05 02:21:30;;;;;;;7.35;6.28;;;11.50;99.90;;;;;;10384360;28;20262;-91
2023/07/05 02:26:33;;;;;;;9.20;5.43;;;11.60;99.90;;;;;;10418348;28;20589;-90
2023/07/05 02:31:36;;;;;;;11.25;6.72;;;11.70;99.90;;;;;;10384542;28;20250;-91
2023/07/05 02:36:38;;;;;;;10.02;7.30;;;11.70;99.90;;;;;;10400605;28;20253;-91
2023/07/05 02:41:41;;;;;;;9.80;5.82;;;11.80;99.90;;;;;;10401115;28;20550;-90
2023/07/05 02:46:43;;;;;;;7.78;5.82;;;11.70;99.90;;;;;;10400306;28;20284;-90
2023/07/05 02:51:46;;;;;;;10.38;5.97;;;11.90;99.90;;;;;;10382302;28;20239;-90
2023/07/05 02:56:49;;;;;;;8.27;5.78;;;11.90;99.90;;;;;;10398547;28;20212;-91
2023/07/05 03:01:51;;;;;;;7.88;6.38;;;12.10;99.90;;;;;;10417095;28;20211;-90
2023/07/05 03:06:54;;;;;;;10.93;6.05;;;12.00;99.90;;;;;;10417195;28;20204;-89
2023/07/05 03:11:57;;;;;;;8.77;6.40;;;11.90;99.90;;;;;;10400086;28;20208;-91
2023/07/05 03:16:59;;;;;;;7.55;6.03;;;12.10;99.90;;;;;;10401794;28;20426;-90
2023/07/05 03:22:02;;;;;;;9.63;6.43;;;12.40;99.90;;;;;;10413357;28;20229;-92
2023/07/05 03:27:05;;;;;;;8.10;5.35;;;12.80;99.90;;;;;;10414118;28;20611;-90
2023/07/05 03:32:07;;;;;;;11.27;6.50;;;12.80;99.90;;;;;;10404449;28;20211;-90
2023/07/05 03:37:10;;;;;;;10.43;6.93;;;12.90;99.90;;;;;;10381455;28;20219;-91
2023/07/05 03:42:15;;;;;;;10.45;6.55;;;12.90;99.90;;;;;;10397716;28;20258;-90
2023/07/05 03:47:17;;;;;;;14.57;6.68;;;12.90;99.90;;;;;;10415072;28;20208;-90
2023/07/05 03:52:20;;;;;;;12.32;6.22;;;13.00;99.90;;;;;;10396686;28;20223;-90
2023/07/05 03:57:23;;;;;;;12.32;8.00;;;13.00;99.90;;;;;;10396720;28;20599;-90
2023/07/05 04:02:25;;;;;;;16.48;8.07;;;12.90;99.90;;;;;;10396303;28;20671;-90
2023/07/05 04:07:29;;;;;;;13.80;8.63;;;13.30;99.90;;;;;;10397222;28;20211;-91
2023/07/05 04:12:31;;;;;;;11.52;7.43;;;13.20;99.90;;;;;;10396574;28;20737;-90
2023/07/05 04:17:34;;;;;;;13.85;7.95;;;13.20;99.90;;;;;;10395237;28;20259;-90
2023/07/05 04:22:39;;;;;;;18.75;6.68;;;13.10;99.90;;;;;;10394950;28;20250;-90
2023/07/05 04:27:41;;;;;;;11.50;6.40;;;13.60;99.90;;;;;;10413260;28;20203;-91
2023/07/05 04:32:47;;;;;;;9.93;6.57;;;13.70;99.90;;;;;;10395415;28;20658;-91
2023/07/05 04:37:50;;;;;;;9.95;5.45;;;13.80;99.90;;;;;;10394810;28;20276;-91
2023/07/05 04:42:53;;;;;;;12.80;6.10;;;14.10;99.90;;;;;;10395757;28;20654;-90
2023/07/05 04:47:55;;;;;;;15.90;6.20;;;14.50;99.90;;;;;;10393767;28;20694;-90
2023/07/05 04:52:58;;;;;;;16.85;7.75;;;14.50;99.90;;;;;;10395570;28;20281;-91
2023/07/05 04:58:04;;;;;;;8.63;5.90;;;15.10;99.90;;;;;;10396884;28;20266;-91
2023/07/05 05:03:07;;;;;;;21.27;7.32;;;15.40;99.90;;;;;;10380020;28;20207;-91
2023/07/05 05:08:12;;;;;;;5.65;4.45;;;15.60;99.90;;;;;;10396754;28;20203;-91
2023/07/05 05:13:14;;;;;;;7.78;4.38;;;15.70;99.90;;;;;;10412194;28;20211;-90
2023/07/05 05:18:18;;;;;;;11.50;5.10;;;16.00;99.90;;;;;;10393182;28;20297;-91
2023/07/05 05:23:21;;;;;;;9.30;5.40;;;16.30;99.90;;;;;;10393444;28;20208;-90
2023/07/05 05:28:24;;;;;;;13.60;6.50;;;16.60;99.90;;;;;;10376532;28;20200;-90
2023/07/05 05:33:26;;;;;;;11.07;5.40;;;16.90;99.10;;;;;;10401847;28;20269;-91
2023/07/05 05:38:29;;;;;;;8.82;6.35;;;17.10;98.70;;;;;;10392851;28;20558;-91
2023/07/05 05:43:32;;;;;;;11.90;5.90;;;17.20;98.30;;;;;;10392573;28;20247;-90
2023/07/05 05:48:35;;;;;;;23.23;6.65;;;17.50;97.30;;;;;;10376576;28;20241;-90
2023/07/05 05:53:37;;;;;;;10.32;4.88;;;17.70;96.50;;;;;;10391404;28;20269;-92
2023/07/05 05:58:40;;;;;;;9.57;4.80;;;18.00;95.50;;;;;;10392066;28;20282;-91
2023/07/05 06:03:42;;;;;;;5.65;5.15;;;18.30;94.20;;;;;;10376926;28;20644;-92
2023/07/05 06:08:45;;;;;;;10.90;6.40;;;18.40;94.00;;;;;;10409132;28;20231;-91
2023/07/05 06:13:48;;;;;;;7.40;4.88;;;18.60;93.20;;;;;;10376206;28;20208;-92
2023/07/05 06:18:51;;;;;;;9.02;4.90;;;18.90;92.30;;;;;;10392131;28;20314;-91
2023/07/05 06:23:53;;;;;;;13.18;5.88;;;19.20;90.70;;;;;;10377698;28;20274;-92
2023/07/05 06:28:56;;;;;;;17.30;6.43;;;19.40;89.50;;;;;;10436410;28;20196;-91
2023/07/05 06:34:00;;;;;;;9.07;5.72;;;19.60;88.10;;;;;;10399296;28;20274;-92
2023/07/05 06:39:03;;;;;;;9.98;5.93;;;19.80;85.70;;;;;;10383648;28;20302;-92
2023/07/05 06:44:06;;;;;;;8.85;4.60;;;20.00;81.20;;;;;;10381798;28;20668;-90
2023/07/05 06:49:08;;;;;;;8.85;5.18;;;20.20;78.90;;;;;;10416365;28;20223;-93
2023/07/05 06:54:11;;;;;;;6.85;5.25;;;20.40;77.70;;;;;;10397884;28;20230;-92
2023/07/05 06:59:13;;;;;;;9.10;4.95;;;20.60;71.30;;;;;;10414938;28;20888;-91
2023/07/05 07:04:16;;;;;;;5.78;4.38;;;20.90;67.90;;;;;;10397965;28;20266;-93
2023/07/05 07:09:18;;;;;;;8.60;4.95;;;21.10;65.20;;;;;;10415825;28;20200;-92
2023/07/05 07:14:21;;;;;;;9.80;4.55;;;21.30;64.60;;;;;;10397932;28;20239;-91
2023/07/05 07:19:24;;;;;;;6.60;3.83;;;21.50;60.90;;;;;;10430105;28;20285;-91
2023/07/05 07:24:28;;;;;;;5.90;4.03;;;21.70;59.90;;;;;;10397252;28;20696;-92
2023/07/05 07:29:31;;;;;;;7.25;4.93;;;21.90;57.90;;;;;;10413663;28;20266;-93
2023/07/05 07:34:34;;;;;;;6.55;5.20;;;22.10;53.90;;;;;;10396571;28;20203;-92
2023/07/05 07:39:36;;;;;;;9.82;6.45;;;22.30;54.70;;;;;;10395745;28;20282;-91
2023/07/05 07:44:39;;;;;;;9.07;5.22;;;22.40;52.40;;;;;;10396294;28;20313;-92
2023/07/05 07:49:42;;;;;;;8.15;6.45;;;22.60;51.70;;;;;;10412943;28;20291;-91
2023/07/05 07:54:45;;;;;;;5.65;4.10;;;22.80;52.10;;;;;;10414898;28;20239;-91
2023/07/05 07:59:47;;;;;;;6.97;4.60;;;22.90;49.40;;;;;;10398151;28;20240;-91
2023/07/05 08:04:50;;;;;;;5.60;4.43;;;23.10;47.70;;;;;;10423313;28;20199;-91
2023/07/05 08:09:56;;;;;;;12.77;7.30;;;23.30;45.90;;;;;;10414271;28;20258;-91
2023/07/05 08:14:59;;;;;;;10.75;7.00;;;23.40;45.50;;;;;;10396155;28;20235;-93
2023/07/05 08:20:02;;;;;;;8.75;4.40;;;23.70;43.80;;;;;;10400091;28;20231;-90
2023/07/05 08:25:04;;;;;;;11.32;7.28;;;23.80;41.10;;;;;;10415427;28;20228;-90
2023/07/05 08:30:09;;;;;;;6.13;4.85;;;24.10;42.00;;;;;;10411338;28;20250;-91
2023/07/05 08:35:12;;;;;;;5.93;4.63;;;24.20;39.60;;;;;;10409633;28;20247;-91
2023/07/05 08:40:17;;;;;;;8.73;6.38;;;24.20;36.20;;;;;;10411976;28;20266;-91
2023/07/05 08:45:35;;;;;;;19.80;12.10;;;24.20;36.80;;;;;;10411088;28;20266;-91
2023/07/05 08:50:42;;;;;;;19.80;8.20;;;23.90;37.40;;;;;;10393878;28;20271;-91
2023/07/05 08:56:12;;;;;;;11.15;7.57;;;23.80;37.20;;;;;;10439358;28;20215;-91
2023/07/05 09:01:24;;;;;;;9.60;4.47;;;24.00;37.20;;;;;;10411604;28;20340;-91
2023/07/05 09:06:34;;;;;;;6.45;5.15;;;24.10;36.80;;;;;;10394631;28;20207;-90
2023/07/05 09:12:03;;;;;;;9.30;6.40;;;24.30;37.00;;;;;;10412279;28;20243;-91
2023/07/05 09:17:40;;;;;;;7.20;5.65;;;24.40;36.30;;;;;;10395330;28;20211;-90
2023/07/05 09:22:44;;;;;;;19.38;9.05;;;24.60;35.40;;;;;;10398374;28;20282;-90
2023/07/05 09:27:53;;;;;;;26.73;15.80;;;24.70;34.40;;;;;;10412814;28;20242;-91
2023/07/05 09:33:07;;;;;;;7.93;5.00;;;24.70;36.00;;;;;;10416752;28;20298;-90
2023/07/05 09:38:10;;;;;;;8.77;5.43;;;24.90;33.20;;;;;;10392287;28;20289;-92
2023/07/05 09:43:34;;;;;;;22.08;13.30;;;24.90;32.20;;;;;;10392836;28;20238;-90
2023/07/05 09:48:42;;;;;;;12.20;7.70;;;25.00;32.40;;;;;;10409628;28;20242;-94
2023/07/05 09:54:00;;;;;;;30.15;15.32;;;25.40;30.90;;;;;;10392757;28;20228;-90
2023/07/05 09:59:20;;;;;;;9.95;6.18;;;25.70;30.40;;;;;;10425727;28;20259;-90
2023/07/05 10:04:27;;;;;;;19.33;13.25;;;26.00;29.60;;;;;;10401471;28;20258;-91
2023/07/05 10:09:30;;;;;;;20.45;12.63;;;26.30;25.90;;;;;;10418581;28;20231;-91
2023/07/05 10:14:34;;;;;;;20.00;12.90;;;26.50;29.20;;;;;;10417515;28;20247;-91
2023/07/05 10:19:51;;;;;;;20.27;13.18;;;26.60;28.20;;;;;;10433019;28;20316;-90
2023/07/05 10:25:01;;;;;;;25.38;15.07;;;26.90;25.20;;;;;;10416611;28;20234;-91
2023/07/05 10:30:13;;;;;;;11.23;8.80;;;26.90;25.10;;;;;;10417200;28;20243;-91
2023/07/05 10:35:22;;;;;;;15.70;9.13;;;26.80;23.70;;;;;;10416641;28;20211;-92
2023/07/05 10:40:26;;;;;;;25.83;12.20;;;26.80;23.70;;;;;;10399552;28;20262;-90
2023/07/05 10:45:34;;;;;;;15.07;9.10;;;26.80;24.30;;;;;;10399419;28;20231;-91
2023/07/05 10:50:39;;;;;;;21.80;10.50;;;26.90;24.00;;;;;;10398634;28;20235;-92
2023/07/05 10:55:52;;;;;;;15.82;10.95;;;27.20;20.80;;;;;;10397951;28;20211;-91
2023/07/05 11:01:13;;;;;;;16.75;10.50;;;27.40;20.20;;;;;;10415305;28;20267;-91
2023/07/05 11:06:17;;;;;;;13.65;9.95;;;27.60;19.90;;;;;;10415273;28;20654;-91
2023/07/05 11:11:23;;;;;;;16.65;9.70;;;27.50;18.90;;;;;;10397584;28;20708;-92
2023/07/05 11:16:29;;;;;;;17.95;10.38;;;27.50;19.40;;;;;;10415994;28;20531;-91
2023/07/05 11:21:38;;;;;;;12.45;8.75;;;27.80;19.10;;;;;;10426477;28;20339;-89
2023/07/05 11:26:42;;;;;;;14.02;9.13;;;27.80;17.90;;;;;;10409669;28;20200;-91
2023/07/05 11:31:45;;;;;;;11.45;6.47;;;27.60;18.60;;;;;;10381804;28;20211;-91
2023/07/05 11:37:00;;;;;;;11.18;7.80;;;27.80;20.20;;;;;;10429562;28;20212;-90
2023/07/05 11:42:15;;;;;;;16.98;7.55;;;27.80;17.40;;;;;;10396858;28;20282;-91
2023/07/05 11:47:23;;;;;;;12.90;8.10;;;27.70;18.00;;;;;;10397612;28;20220;-92
2023/07/05 11:52:31;;;;;;;11.50;6.13;;;27.90;19.00;;;;;;10396574;28;20668;-91
2023/07/05 11:57:46;;;;;;;15.98;8.32;;;28.10;18.10;;;;;;10396166;28;20242;-91
2023/07/05 12:02:54;;;;;;;8.35;5.68;;;28.20;19.70;;;;;;10396017;28;20270;-91
2023/07/05 12:08:07;;;;;;;13.32;7.30;;;27.80;17.10;;;;;;10413996;28;20254;-91
2023/07/05 12:13:19;;;;;;;12.30;7.45;;;27.60;18.00;;;;;;10396214;28;20807;-90
2023/07/05 12:18:22;;;;;;;4.85;3.95;;;27.70;18.80;;;;;;10395654;28;20274;-91
2023/07/05 12:23:28;;;;;;;8.45;5.55;;;27.80;18.50;;;;;;10395644;28;20326;-91
2023/07/05 12:28:32;;;;;;;11.65;5.47;;;28.20;17.50;;;;;;10412735;28;20203;-91
2023/07/05 12:33:36;;;;;;;6.63;5.05;;;28.20;15.30;;;;;;10412385;28;20246;-91
2023/07/05 12:38:41;;;;;;;19.55;6.50;;;28.20;14.20;;;;;;10395117;28;20207;-90
2023/07/05 12:43:46;;;;;;;18.88;5.82;;;28.40;15.60;;;;;;10412022;28;20281;-91
2023/07/05 12:48:49;;;;;;;7.15;4.63;;;28.60;14.90;;;;;;10394497;28;20242;-91
2023/07/05 12:53:58;;;;;;;5.60;4.13;;;28.70;13.90;;;;;;10413981;28;20219;-89
2023/07/05 12:59:12;;;;;;;7.90;5.30;;;28.50;14.20;;;;;;10394288;28;20239;-90
2023/07/05 13:04:37;;;;;;;5.35;4.25;;;28.40;14.40;;;;;;10426578;28;20207;-90
2023/07/05 13:09:40;;;;;;;7.90;5.28;;;28.10;14.60;;;;;;10392852;28;20234;-88
2023/07/05 13:15:00;;;;;;;9.30;4.30;;;28.00;14.50;;;;;;10411264;28;20239;-89
2023/07/05 13:20:16;;;;;;;8.18;4.15;;;27.70;13.10;;;;;;10410567;28;20333;-91
2023/07/05 13:25:46;;;;;;;4.97;4.32;;;27.40;14.30;;;;;;10410638;28;20243;-89
2023/07/05 13:30:56;;;;;;;6.18;4.70;;;26.90;16.10;;;;;;10410659;28;20273;-90
2023/07/05 13:36:01;;;;;;;10.02;4.13;;;26.30;19.40;;;;;;10396649;28;20718;-89
2023/07/05 13:41:05;;;;;;;6.88;3.83;;;25.40;21.60;;;;;;10434066;28;20274;-92
2023/07/05 13:46:07;;;;;;;3.55;3.25;;;24.10;28.30;;;;;;10441707;28;20281;-89
2023/07/05 13:51:27;;;;;;;6.13;2.90;;;23.30;33.10;;;;;;10441593;28;20298;-89
2023/07/05 13:56:29;;;;;;;10.10;5.72;;;22.70;41.90;;;;;;10459812;28;20203;-88
2023/07/05 14:01:32;;;;;;;10.35;6.25;;;21.90;71.90;;;;;;10441897;28;20239;-90
2023/07/05 14:06:34;;;;;;;16.15;6.82;;;21.40;91.50;;;;;;10459358;28;20570;-89
2023/07/05 14:11:40;;;;;;;12.43;7.20;;;20.90;99.90;;;;;;10425028;28;20650;-89
2023/07/05 14:16:43;;;;;;;14.18;6.30;;;20.70;99.90;;;;;;10458452;28;20269;-89
2023/07/05 14:21:48;;;;;;;15.05;7.35;;;20.90;99.90;;;;;;10457726;28;20266;-88
2023/07/05 14:26:51;;;;;;;9.73;6.07;;;21.50;99.90;;;;;;10438787;28;20250;-89
2023/07/05 14:31:53;;;;;;;10.15;6.30;;;21.90;97.10;;;;;;10435329;28;20289;-89
2023/07/05 14:36:56;;;;;;;11.20;7.32;;;22.00;99.70;;;;;;10397419;28;20250;-90
2023/07/05 14:41:59;;;;;;;6.88;6.03;;;22.10;99.90;;;;;;10415632;28;20263;-90
2023/07/05 14:47:02;;;;;;;12.77;6.60;;;21.90;99.50;;;;;;10413619;28;20227;-89
2023/07/05 14:52:05;;;;;;;7.28;5.63;;;21.80;99.90;;;;;;10408117;28;20258;-90
2023/07/05 14:57:10;;;;;;;9.43;5.93;;;21.60;99.60;;;;;;10415176;28;20204;-91
2023/07/05 15:02:20;;;;;;;8.95;6.53;;;21.70;99.90;;;;;;10398639;28;20566;-91
2023/07/05 15:07:23;;;;;;;11.10;5.72;;;21.70;99.90;;;;;;10416241;28;20589;-90
2023/07/05 15:12:26;;;;;;;10.30;6.60;;;21.70;99.90;;;;;;10402696;28;20200;-90
2023/07/05 15:17:29;;;;;;;7.88;6.32;;;21.60;99.90;;;;;;10400961;28;20204;-90
2023/07/05 15:22:33;;;;;;;10.55;6.88;;;21.50;99.90;;;;;;10381692;28;20617;-90
2023/07/05 15:27:35;;;;;;;7.35;5.18;;;21.40;99.90;;;;;;10395901;28;20611;-91
2023/07/05 15:32:39;;;;;;;11.10;7.57;;;21.60;99.90;;;;;;10414310;28;20211;-91
2023/07/05 15:37:42;;;;;;;11.63;6.85;;;21.60;99.90;;;;;;10414084;28;20663;-91
2023/07/05 15:42:47;;;;;;;8.68;6.30;;;21.60;99.90;;;;;;10412746;28;20263;-90
2023/07/05 15:47:50;;;;;;;10.45;6.05;;;21.50;99.90;;;;;;10413095;28;20207;-91
2023/07/05 15:52:53;;;;;;;6.97;5.47;;;21.60;99.90;;;;;;9702634;28;10000707;-91
2023/07/05 15:58:00;;;;;;;10.07;6.05;;;21.60;99.90;;;;;;10350764;28;20266;-91
2023/07/05 16:03:05;;;;;;;9.63;5.70;;;21.10;99.90;;;;;;10392885;28;20251;-90
2023/07/05 16:08:11;;;;;;;10.57;5.80;;;20.80;99.90;;;;;;10391446;28;20238;-91
2023/07/05 16:13:13;;;;;;;9.05;5.72;;;20.40;99.90;;;;;;10408358;28;20243;-91
2023/07/05 16:18:16;;;;;;;9.63;5.20;;;20.20;99.90;;;;;;10407444;28;20243;-91
2023/07/05 16:23:19;;;;;;;9.55;5.78;;;20.20;99.90;;;;;;10390943;28;20270;-91
2023/07/05 16:28:22;;;;;;;8.27;5.55;;;20.30;99.90;;;;;;10415678;28;20647;-91
2023/07/05 16:33:24;;;;;;;7.28;5.60;;;20.40;99.90;;;;;;10390560;28;20239;-92
2023/07/05 16:38:27;;;;;;;10.57;5.97;;;20.80;99.90;;;;;;10399455;28;20227;-92
2023/07/05 16:43:30;;;;;;;6.85;5.30;;;21.10;99.90;;;;;;10407181;28;20298;-91
2023/07/05 16:48:36;;;;;;;7.40;5.50;;;21.30;99.90;;;;;;10374818;28;20251;-91
2023/07/05 16:53:42;;;;;;;7.93;5.28;;;21.60;99.90;;;;;;10389189;28;20267;-92
2023/07/05 16:58:45;;;;;;;7.55;4.68;;;21.70;99.90;;;;;;10406641;28;20394;-91
2023/07/05 17:03:47;;;;;;;8.23;5.70;;;21.70;99.90;;;;;;10393670;28;20282;-91
2023/07/05 17:08:50;;;;;;;7.00;5.75;;;21.60;99.90;;;;;;10411296;28;20227;-90
2023/07/05 17:13:53;;;;;;;6.13;5.22;;;21.70;99.90;;;;;;10409380;28;20717;-89
2023/07/05 17:18:56;;;;;;;9.40;5.82;;;21.80;99.90;;;;;;10410365;28;20658;-89
2023/07/05 17:23:58;;;;;;;12.45;5.57;;;21.70;99.90;;;;;;10392389;28;20321;-89
2023/07/05 17:29:01;;;;;;;10.88;5.88;;;21.70;99.90;;;;;;10393149;28;20254;-90
2023/07/05 17:34:03;;;;;;;6.82;5.28;;;21.70;99.90;;;;;;10392688;28;20203;-88
2023/07/05 17:39:07;;;;;;;10.23;6.57;;;21.40;99.90;;;;;;10409676;28;20702;-89
2023/07/05 17:44:10;;;;;;;5.80;5.07;;;21.40;99.90;;;;;;10393200;28;20258;-89
2023/07/05 17:49:13;;;;;;;7.38;5.72;;;21.40;99.90;;;;;;10409078;28;20212;-89
2023/07/05 17:54:17;;;;;;;8.10;6.05;;;21.40;99.90;;;;;;10410003;28;20278;-89
2023/07/05 17:59:19;;;;;;;9.57;6.32;;;21.30;99.90;;;;;;10408099;28;20304;-90
2023/07/05 18:04:22;;;;;;;9.65;6.47;;;21.10;99.90;;;;;;10409959;28;20263;-90
2023/07/05 18:09:26;;;;;;;8.07;5.90;;;20.90;99.90;;;;;;10408982;28;20228;-90
2023/07/05 18:14:28;;;;;;;8.73;5.43;;;20.80;99.90;;;;;;10374121;28;20749;-92
2023/07/05 18:19:31;;;;;;;9.50;5.53;;;20.80;99.90;;;;;;10393615;28;20207;-91
2023/07/05 18:24:34;;;;;;;5.15;4.50;;;20.70;99.90;;;;;;10416231;28;20334;-90
2023/07/05 18:29:36;;;;;;;9.18;5.18;;;20.60;99.90;;;;;;10400381;28;20218;-90
2023/07/05 18:34:39;;;;;;;8.60;6.22;;;20.60;99.90;;;;;;10400790;28;20207;-90
2023/07/05 18:39:42;;;;;;;7.63;5.35;;;20.50;99.90;;;;;;10417554;28;20285;-88
2023/07/05 18:44:45;;;;;;;9.23;6.15;;;20.50;99.90;;;;;;10417026;28;20298;-89
2023/07/05 18:49:48;;;;;;;7.68;5.65;;;20.40;99.90;;;;;;10400673;28;20208;-88
2023/07/05 18:54:52;;;;;;;8.55;6.20;;;20.20;99.90;;;;;;10416536;28;20211;-88
2023/07/05 18:59:55;;;;;;;10.07;6.72;;;20.00;99.90;;;;;;10416740;28;20655;-88
2023/07/05 19:04:57;;;;;;;10.73;6.40;;;19.90;99.90;;;;;;10398767;28;20259;-88
2023/07/05 19:10:00;;;;;;;6.10;5.10;;;19.90;99.90;;;;;;10397397;28;20243;-90
2023/07/05 19:15:04;;;;;;;8.05;5.47;;;19.80;99.90;;;;;;10416399;28;20258;-90
2023/07/05 19:20:08;;;;;;;6.35;4.93;;;19.70;99.90;;;;;;10412829;28;20582;-90
2023/07/05 19:25:11;;;;;;;9.40;5.95;;;19.70;99.90;;;;;;10398438;28;20235;-90
2023/07/05 19:30:14;;;;;;;8.75;5.30;;;19.70;99.90;;;;;;10380784;28;20254;-89
2023/07/05 19:35:17;;;;;;;8.52;4.95;;;19.60;99.90;;;;;;10412541;28;20298;-90
2023/07/05 19:40:20;;;;;;;11.80;6.28;;;19.50;99.90;;;;;;10396333;28;20289;-92
2023/07/05 19:45:22;;;;;;;8.90;6.80;;;19.60;99.90;;;;;;10395736;28;20251;-92
2023/07/05 19:50:27;;;;;;;10.63;6.47;;;19.60;99.90;;;;;;10396013;28;20664;-92
2023/07/05 19:55:31;;;;;;;11.00;7.00;;;19.60;99.90;;;;;;10379604;28;20264;-92
2023/07/05 20:00:35;;;;;;;8.75;6.75;;;19.50;99.90;;;;;;10395128;28;20235;-93
2023/07/05 20:05:40;;;;;;;7.45;5.82;;;19.40;99.90;;;;;;10396057;28;20254;-91
2023/07/05 20:10:43;;;;;;;6.38;5.75;;;19.40;99.90;;;;;;10425426;28;20211;-91
2023/07/05 20:15:58;;;;;;;13.10;7.45;;;19.30;99.90;;;;;;10430921;28;20714;-88
2023/07/05 20:21:01;;;;;;;10.43;6.90;;;19.20;99.90;;;;;;10411913;28;20258;-89
2023/07/05 20:26:13;;;;;;;7.57;5.35;;;19.10;99.90;;;;;;10412898;28;20195;-89
2023/07/05 20:31:17;;;;;;;9.50;6.35;;;19.10;99.90;;;;;;10393907;28;20238;-90
2023/07/05 20:36:21;;;;;;;15.05;7.85;;;19.10;99.90;;;;;;10411649;28;20207;-90
2023/07/05 20:41:24;;;;;;;8.80;6.20;;;19.00;99.90;;;;;;10411172;28;20263;-89
2023/07/05 20:46:29;;;;;;;8.32;6.72;;;18.90;99.90;;;;;;10411553;28;20227;-88
2023/07/05 20:51:32;;;;;;;7.13;5.30;;;18.90;99.90;;;;;;10410562;28;20595;-88
2023/07/05 20:56:34;;;;;;;9.07;7.72;;;18.90;99.90;;;;;;10392858;28;20261;-89
2023/07/05 21:01:37;;;;;;;5.10;4.32;;;18.80;99.90;;;;;;10392715;28;20764;-89
2023/07/05 21:06:40;;;;;;;6.28;4.85;;;19.00;99.90;;;;;;10392906;28;20223;-89
2023/07/05 21:11:42;;;;;;;5.95;4.68;;;19.50;99.90;;;;;;10393107;28;20203;-88
2023/07/05 21:16:46;;;;;;;6.40;4.57;;;19.80;99.90;;;;;;10409984;28;20243;-88
2023/07/05 21:21:49;;;;;;;4.50;4.10;;;20.10;99.90;;;;;;10411488;28;20262;-89
2023/07/05 21:26:51;;;;;;;6.70;5.03;;;20.20;99.90;;;;;;10420432;28;20208;-89
2023/07/05 21:31:54;;;;;;;6.25;4.53;;;20.20;99.90;;;;;;10393816;28;20215;-89
2023/07/05 21:36:56;;;;;;;4.43;3.75;;;20.10;99.90;;;;;;10393305;28;20204;-90
2023/07/05 21:41:59;;;;;;;7.30;4.55;;;20.10;99.90;;;;;;10381031;28;20227;-89
2023/07/05 21:47:03;;;;;;;4.45;3.92;;;20.10;99.90;;;;;;10394744;28;20207;-90
2023/07/05 21:52:06;;;;;;;8.25;4.07;;;20.00;99.90;;;;;;10393629;28;20741;-89
2023/07/05 21:57:10;;;;;;;5.75;3.33;;;19.90;99.90;;;;;;10379460;28;20203;-89
2023/07/05 22:02:13;;;;;;;5.53;4.00;;;19.70;99.90;;;;;;10417835;28;20707;-89
2023/07/05 22:07:15;;;;;;;5.40;3.70;;;19.60;99.90;;;;;;10418976;28;20199;-89
2023/07/05 22:12:18;;;;;;;6.35;4.13;;;19.50;99.90;;;;;;10400372;28;20334;-89
2023/07/05 22:17:21;;;;;;;4.50;3.90;;;19.40;99.90;;;;;;10418138;28;20239;-89
2023/07/05 22:22:24;;;;;;;7.60;4.25;;;19.30;99.90;;;;;;10417466;28;20263;-89
2023/07/05 22:27:27;;;;;;;4.43;3.80;;;19.10;99.90;;;;;;10417147;28;20289;-88
2023/07/05 22:32:31;;;;;;;6.57;4.28;;;18.90;99.90;;;;;;10416995;28;20246;-89
2023/07/05 22:37:34;;;;;;;7.72;4.32;;;18.80;99.90;;;;;;10398992;28;20235;-89
2023/07/05 22:42:38;;;;;;;7.68;4.00;;;18.50;99.90;;;;;;10415275;28;20271;-88
2023/07/05 22:47:44;;;;;;;5.63;3.40;;;18.20;99.90;;;;;;10398597;28;20281;-89
2023/07/05 22:52:47;;;;;;;6.30;3.88;;;18.30;99.90;;;;;;10397515;28;20228;-89
2023/07/05 22:57:51;;;;;;;5.18;3.72;;;18.30;99.90;;;;;;10398816;28;20269;-89
2023/07/05 23:02:55;;;;;;;7.00;4.43;;;18.30;99.90;;;;;;10415112;28;20681;-89
2023/07/05 23:07:59;;;;;;;8.20;4.75;;;18.20;99.90;;;;;;10415199;28;20211;-88
2023/07/05 23:13:01;;;;;;;5.68;4.63;;;17.90;99.90;;;;;;10415329;28;20231;-89
2023/07/05 23:18:04;;;;;;;4.93;4.30;;;17.60;99.90;;;;;;10414679;28;20601;-89
2023/07/05 23:23:08;;;;;;;3.97;3.60;;;17.40;99.90;;;;;;10414206;28;20301;-89
2023/07/05 23:28:13;;;;;;;4.13;3.20;;;17.20;99.90;;;;;;10414088;28;20374;-89
2023/07/05 23:33:15;;;;;;;9.02;4.20;;;17.00;99.90;;;;;;10413951;28;20230;-88
2023/07/05 23:38:18;;;;;;;6.90;4.28;;;16.80;99.90;;;;;;10413995;28;20227;-89
2023/07/05 23:43:20;;;;;;;8.00;4.07;;;16.50;99.90;;;;;;10413289;28;20717;-88
2023/07/05 23:48:29;;;;;;;3.80;3.40;;;16.20;99.90;;;;;;10413985;28;20208;-89
2023/07/05 23:53:32;;;;;;;4.72;3.65;;;16.20;99.90;;;;;;10413438;28;20258;-89
2023/07/05 23:58:37;;;;;;;4.03;3.28;;;16.20;99.90;;;;;;10420724;28;20204;-88
